createdAt,value
2022-11-19T00:00:55.681Z,101448.34
2022-11-19T00:03:23.550Z,101444.06
2022-11-19T00:05:50.302Z,101453.06
2022-11-19T00:08:18.758Z,101457.50
2022-11-19T00:10:46.199Z,101462.34
2022-11-19T00:13:14.219Z,101467.59
2022-11-19T00:15:41.208Z,101454.88
2022-11-19T00:18:08.142Z,101464.28
2022-11-19T00:20:35.106Z,101443.34
2022-11-19T00:23:01.697Z,101456.38
2022-11-19T00:25:30.026Z,101442.19
2022-11-19T00:27:57.500Z,101442.22
2022-11-19T00:30:47.144Z,101445.69
2022-11-19T00:33:10.836Z,101434.03
2022-11-19T00:35:37.288Z,101441.94
2022-11-19T00:38:03.758Z,101440.31
2022-11-19T00:40:30.352Z,101437.28
2022-11-19T00:43:15.516Z,101449.03
2022-11-19T00:45:44.391Z,101449.16
2022-11-19T00:48:11.014Z,101451.41
2022-11-19T00:50:37.460Z,101457.22
2022-11-19T00:53:03.924Z,101460.84
2022-11-19T00:55:30.373Z,101464.00
2022-11-19T00:57:56.829Z,101474.13
2022-11-19T01:00:23.365Z,101484.44
2022-11-19T01:02:49.897Z,101485.97
2022-11-19T01:05:16.365Z,101501.38
2022-11-19T01:07:42.893Z,101493.72
2022-11-19T01:10:09.446Z,101504.41
2022-11-19T01:12:55.958Z,101504.97
2022-11-19T01:15:22.406Z,101496.38
2022-11-19T01:17:48.871Z,101503.28
2022-11-19T01:20:15.942Z,101486.94
2022-11-19T01:22:42.505Z,101481.09
2022-11-19T01:25:09.797Z,101492.06
2022-11-19T01:27:36.264Z,101491.94
2022-11-19T01:30:02.720Z,101487.19
2022-11-19T01:32:29.163Z,101486.09
2022-11-19T01:34:55.604Z,101476.25
2022-11-19T01:37:22.086Z,101494.13
2022-11-19T01:39:48.529Z,101498.16
2022-11-19T01:42:49.972Z,101508.03
2022-11-19T01:45:28.518Z,101511.63
2022-11-19T01:48:16.607Z,101497.31
2022-11-19T01:50:46.321Z,101499.44
2022-11-19T01:53:13.516Z,101496.38
2022-11-19T01:55:41.770Z,101496.66
2022-11-19T01:58:08.230Z,101513.44
2022-11-19T02:00:34.804Z,101519.69
2022-11-19T02:03:01.257Z,101523.31
2022-11-19T02:05:28.213Z,101521.38
2022-11-19T02:07:57.522Z,101513.16
2022-11-19T02:10:41.017Z,101522.47
2022-11-19T02:13:28.192Z,101514.69
2022-11-19T02:16:02.121Z,101518.84
2022-11-19T02:18:38.076Z,101513.28
2022-11-19T02:21:34.401Z,101515.78
2022-11-19T02:24:03.747Z,101510.50
2022-11-19T02:26:44.422Z,101509.69
2022-11-19T02:29:29.077Z,101514.38
2022-11-19T02:32:08.437Z,101506.88
2022-11-19T02:34:58.519Z,101497.28
2022-11-19T02:37:31.546Z,101499.22
2022-11-19T02:40:14.008Z,101495.25
2022-11-19T02:42:55.163Z,101502.38
2022-11-19T02:45:30.337Z,101490.97
2022-11-19T02:48:23.917Z,101491.28
2022-11-19T02:50:55.412Z,101484.88
2022-11-19T02:53:23.465Z,101489.56
2022-11-19T02:56:08.452Z,101485.84
2022-11-19T02:58:53.969Z,101496.84
2022-11-19T03:01:40.767Z,101494.72
2022-11-19T03:04:26.769Z,101481.69
2022-11-19T03:06:54.174Z,101497.09
2022-11-19T03:09:21.722Z,101500.53
2022-11-19T03:11:54.210Z,101500.44
2022-11-19T03:14:42.714Z,101503.72
2022-11-19T03:17:21.204Z,101501.94
2022-11-19T03:19:58.121Z,101497.69
2022-11-19T03:22:35.913Z,101497.22
2022-11-19T03:25:07.269Z,101499.22
2022-11-19T03:27:40.586Z,101503.66
2022-11-19T03:30:07.996Z,101504.63
2022-11-19T03:32:53.050Z,101496.00
2022-11-19T03:35:23.317Z,101499.50
2022-11-19T03:37:52.947Z,101504.06
2022-11-19T03:40:20.248Z,101485.19
2022-11-19T03:42:51.373Z,101505.94
2022-11-19T03:45:23.376Z,101506.75
2022-11-19T03:47:50.445Z,101493.03
2022-11-19T03:50:23.663Z,101494.47
2022-11-19T03:52:50.139Z,101490.22
2022-11-19T03:55:16.658Z,101492.06
2022-11-19T03:57:43.295Z,101498.47
2022-11-19T04:00:10.396Z,101492.59
2022-11-19T04:02:36.847Z,101492.72
2022-11-19T04:05:03.302Z,101498.63
2022-11-19T04:07:29.790Z,101490.22
2022-11-19T04:09:56.291Z,101493.44
2022-11-19T04:12:24.409Z,101492.97
2022-11-19T04:14:51.549Z,101488.53
2022-11-19T04:17:19.138Z,101490.84
2022-11-19T04:19:46.514Z,101489.75
2022-11-19T04:22:12.948Z,101481.63
2022-11-19T04:24:39.517Z,101489.81
2022-11-19T04:27:05.993Z,101478.47
2022-11-19T04:29:32.453Z,101490.91
2022-11-19T04:31:58.904Z,101482.84
2022-11-19T04:34:25.349Z,101476.50
2022-11-19T04:36:51.789Z,101485.66
2022-11-19T04:39:18.741Z,101478.72
2022-11-19T04:41:45.522Z,101478.59
2022-11-19T04:44:11.968Z,101470.09
2022-11-19T04:46:38.477Z,101481.63
2022-11-19T04:49:04.916Z,101481.28
2022-11-19T04:51:31.374Z,101483.53
2022-11-19T04:53:57.816Z,101488.03
2022-11-19T04:56:24.306Z,101487.84
2022-11-19T04:58:50.752Z,101493.59
2022-11-19T05:01:17.497Z,101496.16
2022-11-19T05:03:43.994Z,101499.19
2022-11-19T05:06:10.437Z,101499.38
2022-11-19T05:08:36.880Z,101499.81
2022-11-19T05:11:03.324Z,101501.31
2022-11-19T05:13:29.770Z,101504.38
2022-11-19T05:15:56.227Z,101496.38
2022-11-19T05:18:23.941Z,101492.72
2022-11-19T05:20:50.381Z,101491.63
2022-11-19T05:23:16.883Z,101489.84
2022-11-19T05:25:43.365Z,101481.03
2022-11-19T05:28:09.995Z,101480.88
2022-11-19T05:30:36.488Z,101469.69
2022-11-19T05:33:02.924Z,101468.09
2022-11-19T05:35:29.386Z,101473.13
2022-11-19T05:37:55.825Z,101464.25
2022-11-19T05:40:22.306Z,101473.56
2022-11-19T05:42:48.758Z,101466.88
2022-11-19T05:45:15.245Z,101460.19
2022-11-19T05:47:45.995Z,101461.75
2022-11-19T05:50:14.996Z,101462.50
2022-11-19T05:52:41.549Z,101478.66
2022-11-19T05:55:08.030Z,101473.50
2022-11-19T05:57:34.566Z,101484.00
2022-11-19T06:00:01.015Z,101480.75
2022-11-19T06:02:27.570Z,101484.72
2022-11-19T06:04:54.128Z,101480.22
2022-11-19T06:07:20.631Z,101474.66
2022-11-19T06:09:47.151Z,101480.03
2022-11-19T06:12:13.610Z,101491.25
2022-11-19T06:14:40.186Z,101489.34
2022-11-19T06:17:06.702Z,101477.91
2022-11-19T06:19:33.232Z,101493.75
2022-11-19T06:21:59.686Z,101498.66
2022-11-19T06:24:26.288Z,101514.50
2022-11-19T06:26:52.733Z,101521.63
2022-11-19T06:29:19.476Z,101531.03
2022-11-19T06:31:46.836Z,101536.25
2022-11-19T06:34:13.348Z,101559.25
2022-11-19T06:36:43.927Z,101570.13
2022-11-19T06:39:14.230Z,101583.13
2022-11-19T06:41:40.676Z,101584.50
2022-11-19T06:44:07.198Z,101584.50
2022-11-19T06:46:33.655Z,101582.13
2022-11-19T06:49:00.129Z,101591.00
2022-11-19T06:51:26.589Z,101591.34
2022-11-19T06:53:53.044Z,101599.84
2022-11-19T06:56:19.507Z,101597.69
2022-11-19T06:58:46.036Z,101603.16
2022-11-19T07:01:14.320Z,101600.88
2022-11-19T07:03:41.230Z,101592.38
2022-11-19T07:06:07.670Z,101579.88
2022-11-19T07:08:35.527Z,101580.09
2022-11-19T07:11:22.800Z,101568.41
2022-11-19T07:13:59.775Z,101569.00
2022-11-19T07:16:31.755Z,101565.38
2022-11-19T07:18:59.398Z,101559.94
2022-11-19T07:21:26.184Z,101564.16
2022-11-19T07:23:52.695Z,101554.00
2022-11-19T07:26:19.208Z,101555.16
2022-11-19T07:28:45.652Z,101551.56
2022-11-19T07:31:12.150Z,101555.38
2022-11-19T07:33:39.349Z,101546.13
2022-11-19T07:36:07.583Z,101545.53
2022-11-19T07:38:37.103Z,101536.78
2022-11-19T07:41:24.869Z,101542.34
2022-11-19T07:43:51.343Z,101557.81
2022-11-19T07:46:17.788Z,101563.66
2022-11-19T07:48:44.250Z,101581.28
2022-11-19T07:51:10.710Z,101584.38
2022-11-19T07:53:37.161Z,101578.66
2022-11-19T07:56:03.925Z,101590.41
2022-11-19T07:58:30.371Z,101594.50
2022-11-19T08:00:56.855Z,101590.94
2022-11-19T08:03:23.310Z,101600.78
2022-11-19T08:05:49.755Z,101598.53
2022-11-19T08:08:16.215Z,101590.47
2022-11-19T08:10:42.708Z,101593.38
2022-11-19T08:13:09.160Z,101596.94
2022-11-19T08:15:35.600Z,101590.31
2022-11-19T08:18:15.497Z,101596.59
2022-11-19T08:20:43.657Z,101593.25
2022-11-19T08:23:10.526Z,101590.88
2022-11-19T08:25:37.206Z,101594.34
2022-11-19T08:28:04.759Z,101603.03
2022-11-19T08:30:31.863Z,101602.50
2022-11-19T08:32:58.445Z,101598.59
2022-11-19T08:35:25.146Z,101596.09
2022-11-19T08:37:51.622Z,101591.41
2022-11-19T08:40:18.195Z,101584.59
2022-11-19T08:42:59.729Z,101588.69
2022-11-19T08:45:37.597Z,101593.72
2022-11-19T08:48:06.396Z,101594.56
2022-11-19T08:50:33.283Z,101594.50
2022-11-19T08:53:02.011Z,101601.91
2022-11-19T08:55:29.846Z,101605.09
2022-11-19T08:58:03.970Z,101601.13
2022-11-19T09:00:31.385Z,101594.78
2022-11-19T09:03:00.612Z,101595.84
2022-11-19T09:05:27.302Z,101595.97
2022-11-19T09:07:56.766Z,101599.69
2022-11-19T09:10:23.299Z,101595.69
2022-11-19T09:12:49.737Z,101586.66
2022-11-19T09:15:16.246Z,101590.44
2022-11-19T09:17:46.826Z,101587.34
2022-11-19T09:20:13.791Z,101585.28
2022-11-19T09:22:40.607Z,101584.81
2022-11-19T09:25:08.845Z,101579.72
2022-11-19T09:27:36.314Z,101579.59
2022-11-19T09:30:03.405Z,101584.38
2022-11-19T09:32:31.193Z,101595.31
2022-11-19T09:34:57.725Z,101579.03
2022-11-19T09:37:24.194Z,101575.31
2022-11-19T09:39:50.713Z,101542.06
2022-11-19T09:42:31.672Z,101481.13
2022-11-19T09:45:19.108Z,101478.41
2022-11-19T09:47:55.496Z,101466.31
2022-11-19T09:50:26.996Z,101474.19
2022-11-19T09:52:56.362Z,101485.53
2022-11-19T09:55:31.501Z,101462.53
2022-11-19T09:57:59.438Z,101446.84
2022-11-19T10:00:29.171Z,101466.84
2022-11-19T10:02:57.276Z,101475.31
2022-11-19T10:05:47.350Z,101457.03
2022-11-19T10:08:20.771Z,101474.41
2022-11-19T10:11:06.399Z,101477.81
2022-11-19T10:14:11.311Z,101466.16
2022-11-19T10:16:47.960Z,101463.69
2022-11-19T10:19:38.867Z,101446.19
2022-11-19T10:22:20.459Z,101425.81
2022-11-19T10:25:04.293Z,101432.88
2022-11-19T10:27:40.969Z,101427.44
2022-11-19T10:30:14.444Z,101417.81
2022-11-19T10:32:44.280Z,101405.00
2022-11-19T10:35:20.135Z,101397.28
2022-11-19T10:38:10.893Z,101381.84
2022-11-19T10:40:46.838Z,101354.41
2022-11-19T10:43:20.656Z,101364.75
2022-11-19T10:45:49.557Z,101368.19
2022-11-19T10:48:22.343Z,101357.13
2022-11-19T10:50:49.622Z,101367.63
2022-11-19T10:53:29.122Z,101359.03
2022-11-19T10:56:04.870Z,101351.75
2022-11-19T10:58:40.584Z,101351.59
2022-11-19T11:01:14.928Z,101308.31
2022-11-19T11:03:58.524Z,101291.72
2022-11-19T11:06:25.001Z,101271.06
2022-11-19T11:08:52.209Z,101219.00
2022-11-19T11:11:49.504Z,101247.16
2022-11-19T11:14:36.509Z,101174.81
2022-11-19T11:17:04.900Z,101179.72
2022-11-19T11:19:31.942Z,101216.19
2022-11-19T11:21:58.458Z,101143.25
2022-11-19T11:24:36.306Z,101149.00
2022-11-19T11:27:33.563Z,101208.81
2022-11-19T11:30:12.194Z,101151.94
2022-11-19T11:32:39.421Z,101099.47
2022-11-19T11:35:09.935Z,101087.47
2022-11-19T11:37:38.756Z,101122.69
2022-11-19T11:40:06.114Z,101164.53
2022-11-19T11:42:32.665Z,101154.44
2022-11-19T11:45:00.758Z,101178.75
2022-11-19T11:47:33.606Z,101193.88
2022-11-19T11:50:14.586Z,101160.91
2022-11-19T11:52:43.046Z,101164.81
2022-11-19T11:55:31.611Z,101203.13
2022-11-19T11:58:24.273Z,101231.75
2022-11-19T12:00:53.351Z,101259.91
2022-11-19T12:03:20.141Z,101240.09
2022-11-19T12:06:17.810Z,101135.22
2022-11-19T12:08:54.828Z,101033.53
2022-11-19T12:11:55.419Z,101003.84
2022-11-19T12:14:52.173Z,100941.53
2022-11-19T12:17:48.296Z,100930.94
2022-11-19T12:20:30.960Z,100910.81
2022-11-19T12:23:14.029Z,100880.97
2022-11-19T12:26:02.477Z,100866.00
2022-11-19T12:29:06.897Z,100843.16
2022-11-19T12:31:52.294Z,100866.47
2022-11-19T12:34:40.395Z,100826.84
2022-11-19T12:37:25.804Z,100783.91
2022-11-19T12:40:20.537Z,100858.53
2022-11-19T12:43:21.341Z,100911.72
2022-11-19T12:45:57.485Z,101010.91
2022-11-19T12:48:23.882Z,101061.16
2022-11-19T12:50:57.346Z,101098.09
2022-11-19T12:53:41.874Z,101137.56
2022-11-19T12:56:30.802Z,101148.25
2022-11-19T12:59:22.837Z,101200.53
2022-11-19T13:01:51.407Z,101214.72
2022-11-19T13:04:38.898Z,101117.50
2022-11-19T13:07:10.610Z,101025.53
2022-11-19T13:09:44.123Z,100975.84
2022-11-19T13:12:13.717Z,100920.50
2022-11-19T13:14:59.567Z,100915.56
2022-11-19T13:17:40.259Z,100877.41
2022-11-19T13:20:25.970Z,100808.16
2022-11-19T13:22:55.997Z,100823.69
2022-11-19T13:25:25.668Z,100810.41
2022-11-19T13:27:53.596Z,100793.94
2022-11-19T13:30:26.696Z,100846.31
2022-11-19T13:33:00.882Z,100804.00
2022-11-19T13:35:29.222Z,100776.00
2022-11-19T13:38:21.262Z,100793.09
2022-11-19T13:41:09.091Z,100796.81
2022-11-19T13:43:54.149Z,100776.97
2022-11-19T13:46:25.263Z,100788.53
2022-11-19T13:49:01.517Z,100764.50
2022-11-19T13:51:38.188Z,100777.75
2022-11-19T13:54:07.147Z,100782.06
2022-11-19T13:56:43.777Z,100771.06
2022-11-19T13:59:25.834Z,100793.22
2022-11-19T14:01:58.924Z,100781.28
2022-11-19T14:04:36.000Z,100797.06
2022-11-19T14:07:19.035Z,100742.22
2022-11-19T14:10:04.301Z,100740.66
2022-11-19T14:12:43.848Z,100757.91
2022-11-19T14:16:00.199Z,100806.78
2022-11-19T14:18:59.692Z,100897.09
2022-11-19T14:21:44.608Z,100990.84
2022-11-19T14:24:44.824Z,101060.72
2022-11-19T14:27:17.199Z,101123.00
2022-11-19T14:29:43.550Z,101162.19
2022-11-19T14:32:09.879Z,101188.22
2022-11-19T14:34:47.745Z,101233.28
2022-11-19T14:37:21.197Z,101254.72
2022-11-19T14:39:54.795Z,101261.47
2022-11-19T14:42:22.123Z,101279.28
2022-11-19T14:45:03.713Z,101301.72
2022-11-19T14:47:34.481Z,101296.06
2022-11-19T14:50:03.508Z,101305.91
2022-11-19T14:52:36.335Z,101307.59
2022-11-19T14:55:29.092Z,101316.94
2022-11-19T14:58:04.547Z,101323.03
2022-11-19T15:00:37.420Z,101327.28
2022-11-19T15:03:06.478Z,101326.75
2022-11-19T15:05:35.659Z,101335.44
2022-11-19T15:08:17.145Z,101330.81
2022-11-19T15:11:01.842Z,101324.44
2022-11-19T15:13:29.967Z,101339.97
2022-11-19T15:16:17.180Z,101342.03
2022-11-19T15:18:55.076Z,101344.88
2022-11-19T15:21:52.610Z,101343.91
2022-11-19T15:24:53.161Z,101337.63
2022-11-19T15:27:41.867Z,101334.09
2022-11-19T15:30:12.811Z,101335.69
2022-11-19T15:32:50.069Z,101347.59
2022-11-19T15:35:35.833Z,101331.75
2022-11-19T15:38:19.916Z,101325.72
2022-11-19T15:40:49.592Z,101326.78
2022-11-19T15:43:24.046Z,101327.38
2022-11-19T15:46:07.670Z,101316.50
2022-11-19T15:49:05.271Z,101329.22
2022-11-19T15:51:39.788Z,101319.81
2022-11-19T15:54:11.665Z,101336.16
2022-11-19T15:56:45.962Z,101337.97
2022-11-19T15:59:12.982Z,101340.69
2022-11-19T16:01:40.948Z,101336.59
2022-11-19T16:04:12.837Z,101338.03
2022-11-19T16:06:44.722Z,101331.38
2022-11-19T16:09:18.622Z,101343.78
2022-11-19T16:12:04.471Z,101337.25
2022-11-19T16:14:49.390Z,101330.81
2022-11-19T16:17:43.044Z,101325.53
2022-11-19T16:20:10.114Z,101328.06
2022-11-19T16:23:00.206Z,101322.94
2022-11-19T16:25:34.341Z,101323.16
2022-11-19T16:28:05.093Z,101323.44
2022-11-19T16:30:39.805Z,101324.59
2022-11-19T16:33:06.445Z,101327.97
2022-11-19T16:35:33.192Z,101327.72
2022-11-19T16:38:00.745Z,101333.63
2022-11-19T16:40:27.572Z,101318.91
2022-11-19T16:42:56.464Z,101335.91
2022-11-19T16:45:25.666Z,101336.84
2022-11-19T16:47:57.379Z,101323.72
2022-11-19T16:50:36.341Z,101301.44
2022-11-19T16:53:05.567Z,101329.06
2022-11-19T16:55:33.963Z,101322.06
2022-11-19T16:58:00.323Z,101317.56
2022-11-19T17:00:32.917Z,101318.41
2022-11-19T17:03:00.037Z,101312.63
2022-11-19T17:05:30.277Z,101313.44
2022-11-19T17:08:19.583Z,101309.16
2022-11-19T17:10:46.433Z,101308.03
2022-11-19T17:13:28.454Z,101289.91
2022-11-19T17:15:55.015Z,101302.19
2022-11-19T17:18:29.097Z,101302.06
2022-11-19T17:20:57.152Z,101294.16
2022-11-19T17:23:32.112Z,101303.78
2022-11-19T17:26:03.543Z,101289.34
2022-11-19T17:28:45.297Z,101287.81
2022-11-19T17:31:20.041Z,101289.75
2022-11-19T17:34:09.601Z,101283.22
2022-11-19T17:36:36.474Z,101278.31
2022-11-19T17:39:11.582Z,101288.56
2022-11-19T17:41:57.499Z,101296.75
2022-11-19T17:44:34.610Z,101287.56
2022-11-19T17:47:21.225Z,101288.50
2022-11-19T17:49:49.402Z,101286.19
2022-11-19T17:52:26.968Z,101290.34
2022-11-19T17:54:56.162Z,101300.47
2022-11-19T17:57:22.668Z,101303.59
2022-11-19T17:59:49.167Z,101308.63
2022-11-19T18:02:18.103Z,101303.63
2022-11-19T18:04:45.387Z,101307.78
2022-11-19T18:07:12.396Z,101292.06
2022-11-19T18:09:39.552Z,101302.91
2022-11-19T18:12:07.322Z,101303.47
2022-11-19T18:14:33.772Z,101303.66
2022-11-19T18:17:00.313Z,101313.06
2022-11-19T18:19:28.613Z,101312.25
2022-11-19T18:21:55.480Z,101315.41
2022-11-19T18:24:22.235Z,101295.28
2022-11-19T18:26:48.723Z,101302.16
2022-11-19T18:29:15.223Z,101293.06
2022-11-19T18:31:49.044Z,101298.72
2022-11-19T18:34:21.428Z,101297.41
2022-11-19T18:36:48.202Z,101307.03
2022-11-19T18:39:14.965Z,101300.16
2022-11-19T18:41:41.662Z,101292.69
2022-11-19T18:44:31.103Z,101298.22
2022-11-19T18:46:57.724Z,101300.59
2022-11-19T18:49:24.346Z,101295.16
2022-11-19T18:51:50.911Z,101298.53
2022-11-19T18:54:17.374Z,101296.19
2022-11-19T18:56:43.925Z,101304.38
2022-11-19T18:59:11.949Z,101291.88
2022-11-19T19:01:38.906Z,101292.25
2022-11-19T19:04:10.075Z,101288.78
2022-11-19T19:06:36.603Z,101294.88
2022-11-19T19:09:03.661Z,101293.16
2022-11-19T19:11:48.740Z,101301.00
2022-11-19T19:14:15.339Z,101288.78
2022-11-19T19:16:42.044Z,101279.81
2022-11-19T19:19:10.112Z,101285.03
2022-11-19T19:21:36.757Z,101284.84
2022-11-19T19:24:05.237Z,101276.63
2022-11-19T19:26:32.058Z,101289.09
2022-11-19T19:28:58.649Z,101300.47
2022-11-19T19:31:25.221Z,101293.63
2022-11-19T19:33:52.348Z,101290.72
2022-11-19T19:36:19.884Z,101296.56
2022-11-19T19:38:46.967Z,101301.28
2022-11-19T19:41:21.543Z,101299.63
2022-11-19T19:43:52.774Z,101301.59
2022-11-19T19:46:21.268Z,101312.41
2022-11-19T19:48:49.548Z,101310.84
2022-11-19T19:51:17.066Z,101308.88
2022-11-19T19:53:43.932Z,101296.03
2022-11-19T19:56:13.257Z,101287.41
2022-11-19T19:58:40.802Z,101300.34
2022-11-19T20:01:19.102Z,101288.28
2022-11-19T20:03:50.410Z,101286.31
2022-11-19T20:06:22.193Z,101284.22
2022-11-19T20:08:48.832Z,101282.00
2022-11-19T20:11:21.187Z,101284.78
2022-11-19T20:13:47.869Z,101275.53
2022-11-19T20:16:18.441Z,101285.66
2022-11-19T20:18:46.531Z,101276.38
2022-11-19T20:21:14.929Z,101273.47
2022-11-19T20:23:41.819Z,101270.28
2022-11-19T20:26:14.680Z,101275.69
2022-11-19T20:28:41.368Z,101264.34
2022-11-19T20:31:10.545Z,101270.84
2022-11-19T20:33:37.775Z,101266.66
2022-11-19T20:36:05.002Z,101257.97
2022-11-19T20:38:31.569Z,101265.56
2022-11-19T20:41:00.218Z,101274.59
2022-11-19T20:43:52.437Z,101274.69
2022-11-19T20:46:21.411Z,101269.03
2022-11-19T20:48:48.605Z,101272.50
2022-11-19T20:51:19.760Z,101267.06
2022-11-19T20:53:46.548Z,101261.13
2022-11-19T20:56:13.720Z,101259.91
2022-11-19T20:58:40.169Z,101269.59
2022-11-19T21:01:10.217Z,101265.19
2022-11-19T21:03:36.908Z,101265.56
2022-11-19T21:06:07.739Z,101268.31
2022-11-19T21:08:35.848Z,101264.19
2022-11-19T21:11:12.593Z,101260.44
2022-11-19T21:13:39.335Z,101256.81
2022-11-19T21:16:17.374Z,101249.22
2022-11-19T21:18:43.907Z,101234.50
2022-11-19T21:21:12.546Z,101239.44
2022-11-19T21:23:40.260Z,101228.13
2022-11-19T21:26:09.910Z,101221.47
2022-11-19T21:28:37.489Z,101212.19
2022-11-19T21:31:05.166Z,101220.38
2022-11-19T21:33:31.689Z,101213.72
2022-11-19T21:35:58.894Z,101212.03
2022-11-19T21:38:25.969Z,101213.56
2022-11-19T21:40:54.057Z,101203.31
2022-11-19T21:43:21.032Z,101206.31
2022-11-19T21:45:48.877Z,101199.16
2022-11-19T21:48:15.896Z,101201.66
2022-11-19T21:50:42.707Z,101199.28
2022-11-19T21:53:10.050Z,101202.91
2022-11-19T21:55:36.627Z,101196.78
2022-11-19T21:58:06.610Z,101195.50
2022-11-19T22:00:34.182Z,101187.34
2022-11-19T22:03:00.921Z,101186.97
2022-11-19T22:05:27.772Z,101184.88
2022-11-19T22:07:54.215Z,101188.72
2022-11-19T22:10:20.666Z,101184.31
2022-11-19T22:12:47.115Z,101183.63
2022-11-19T22:15:14.439Z,101174.88
2022-11-19T22:17:41.023Z,101179.75
2022-11-19T22:20:07.928Z,101179.75
2022-11-19T22:22:35.603Z,101187.78
2022-11-19T22:25:02.117Z,101190.38
2022-11-19T22:27:29.334Z,101175.97
2022-11-19T22:29:56.731Z,101171.81
2022-11-19T22:32:23.319Z,101169.09
2022-11-19T22:34:49.786Z,101173.47
2022-11-19T22:37:16.256Z,101167.63
2022-11-19T22:39:43.825Z,101169.03
2022-11-19T22:42:10.321Z,101163.31
2022-11-19T22:44:36.943Z,101164.44
2022-11-19T22:47:03.420Z,101160.94
2022-11-19T22:49:30.040Z,101148.84
2022-11-19T22:51:56.499Z,101146.09
2022-11-19T22:54:22.946Z,101156.47
2022-11-19T22:56:49.436Z,101161.06
2022-11-19T22:59:15.885Z,101151.50
2022-11-19T23:01:42.372Z,101142.91
2022-11-19T23:04:08.823Z,101143.91
2022-11-19T23:06:36.671Z,101145.31
2022-11-19T23:09:04.450Z,101143.59
2022-11-19T23:11:49.456Z,101147.75
2022-11-19T23:14:18.022Z,101138.47
2022-11-19T23:16:44.825Z,101136.31
2022-11-19T23:19:12.445Z,101132.69
2022-11-19T23:21:39.203Z,101142.91
2022-11-19T23:24:06.326Z,101144.56
2022-11-19T23:26:33.356Z,101129.78
2022-11-19T23:29:00.004Z,101128.81
2022-11-19T23:31:34.642Z,101123.28
2022-11-19T23:34:01.186Z,101130.66
2022-11-19T23:36:36.553Z,101141.03
2022-11-19T23:39:05.106Z,101134.63
2022-11-19T23:41:33.407Z,101135.72
2022-11-19T23:43:59.880Z,101135.00
2022-11-19T23:46:31.552Z,101129.94
2022-11-19T23:48:58.747Z,101118.84
2022-11-19T23:51:30.461Z,101119.81
2022-11-19T23:53:57.316Z,101116.50
2022-11-19T23:56:24.373Z,101122.44
2022-11-19T23:58:51.190Z,101124.81
